Wytheville, Virginia
Current Conditions -  °F | °C
As of 11:15 AM on Monday 24 Nov 2014 (Local Time) from KMKJ Reporting Station
Clear Clear  
Wind Chill: 68°   Ceiling: Unl
Heat Index: 68°   Visibility: 10mi
Dew Point: 37°   Wind: 18mph
Humidity: 32%   Direction: 230°SW
Pressure: 29.72"   Gusts: 28mph
Location:  36.95°N, 81.08°W
Report Text: KMKJ 241615Z AUTO 23016G24KT 10SM CLR 20/03 A2972 RMK AO2 T02000027
Loading
Personal Weather Stations






























Interactive Weather Map New forecast layout! Learn more

10-Day Weather Forecast

Advertisements
Track Severe Weather on mobile